Monticello, Maine
Current Conditions -  °F | °C
As of 12:53 PM on Thursday 27 Nov 2014 (Local Time) from KHUL Reporting Station
Overcast Overcast  
Wind Chill: 17°   Ceiling: 2500
Heat Index: 28°   Visibility: 10mi
Dew Point: 20°   Wind: 15mph
Humidity: 72%   Direction: 340°NNW
Pressure: 29.83"   Gusts: NA
Location:  46.31°N, 67.84°W
Report Text: KHUL 271753Z AUTO 34013KT 10SM OVC025 M02/M07 A2983 RMK AO2 SLP109 60000 T10221067 11022 21039 53023 $
Loading
Personal Weather Stations






























Interactive Weather Map New forecast layout! Learn more

10-Day Weather Forecast

Advertisements
Track Severe Weather on mobile